Ambler, Alaska
Current Conditions -  °F | °C
As of 4:16 AM on Saturday 25 Oct 2014 (Local Time) from PAFM Reporting Station
Overcast Overcast  
Wind Chill: 16°   Ceiling: 1400
Heat Index: 23°   Visibility: 1.5mi
Dew Point: 19°   Wind: 6mph
Humidity: 86%   Direction: 50°NE
Pressure: 29.85"   Gusts: NA
Location:  67.09°N, 157.85°W
Report Text: PAFM 251216Z AUTO 05005KT 1 1/2SM OVC014 M05/M07 A2985 RMK AO1 P0001
Loading
Personal Weather Stations






























Interactive Weather Map
Tropical Storm Tracking
New forecast layout! Learn more

10-Day Weather Forecast

Advertisements
Track Severe Weather on mobile